Startpagina
METAR-TAF:

METAR-TAF

Vliegvelden :

Damascus, Syrië

Luchthaven Damascus

breedte: 33-25N, lengte: 036-31E, hoogte: 608 m

Actueel weer

Dit bericht is 5 uur en het 3 minuten geleden gemaakt, om 14:00 UTC
Weinig wind
Temperatuur 18°C
Vochtigheid 34%
Druk 1012 hPa
Zicht 10 km of meer
geen wolken onder 1500 m en geen cumulonimbus

METAR: OSDI 201400Z 00000KT CAVOK 18/02 Q1012

Tijdstip: 21:03 (19:03 UTC)

Verwachting

Dit bericht is 8 uur en het 33 minuten geleden gemaakt, om 10:30 UTC
Verwachting geldig van 20 om 12 UTC tot 21 om 18 UTC
Wind 10 kt uit het zuidwesten met uitschieters tot 20 kt
Zicht 10 km of meer
Weinig wolken op 3000 ft
Verspreide wolken op 10000 ft
Wijzigt naar
van 21 om 00 UTC tot 21 om 08 UTC
Wind 3 kt uit variabele richting
Zicht: 4000 m
nevel
Tijdelijke
van 21 om 01 UTC tot 21 om 06 UTC
Wind 3 kt uit variabele richting
Zicht: 0200 m
Weinig wolken op 1000 ft
mist

TAF: OSDI 201030Z 2012/2118 22010G20KT 9999 FEW030 SCT100 BECMG 2100/2108 VRB03KT 4000 BR TEMPO 2101/2106 VRB03KT 0200 FG FEW010

Waarnemingen en weersverwachtingen van meer dan 4000 vliegvelden (METAR en TAF).

De beschikbare stations zijn de gele en rode punten op de kaart.

Ga met uw muis naar het station om de naam te zien.

Klik dan om waarnemingen en weersverwachtingen te zien.

kaart wijzigen: klik op de groene knoppen met een zwart kruis om in te zoomen, op de groene knop met een streepje om uit te zoomen of op de groene pijlen voor aangrenzende kaarten.


METAR-TAF: